NCAR-RAP Real-Time Weather Data

Output produced by METARs form (23 February 2020  02:35 UTC)
found at http://weather.rap.ucar.edu/surface/
 
KCYS 230153Z 22011KT 10SM CLR 06/M07 A3000 RMK AO2 SLP144 T00561072